createdAt,value
2022-10-01T00:00:09.073Z,80.07
2022-10-01T00:05:32.442Z,80.00
2022-10-01T00:10:38.519Z,79.93
2022-10-01T00:15:42.852Z,80.04
2022-10-01T00:20:46.251Z,80.21
2022-10-01T00:25:52.789Z,80.39
2022-10-01T00:30:56.238Z,80.32
2022-10-01T00:35:59.784Z,80.19
2022-10-01T00:41:05.247Z,80.33
2022-10-01T00:46:20.357Z,80.50
2022-10-01T00:51:30.658Z,80.39
2022-10-01T00:56:34.537Z,80.40
2022-10-01T01:01:39.586Z,80.51
2022-10-01T01:06:54.062Z,80.43
2022-10-01T01:12:48.680Z,80.72
2022-10-01T01:18:09.603Z,80.72
2022-10-01T01:23:16.386Z,80.58
2022-10-01T01:28:37.738Z,80.48
2022-10-01T01:33:46.199Z,80.53
2022-10-01T01:38:59.093Z,80.66
2022-10-01T01:44:08.957Z,80.67
2022-10-01T01:49:18.007Z,80.71
2022-10-01T01:54:21.733Z,80.97
2022-10-01T01:59:27.422Z,81.10
2022-10-01T02:04:40.231Z,81.08
2022-10-01T02:09:55.109Z,81.04
2022-10-01T02:15:22.702Z,81.01
2022-10-01T02:20:46.116Z,80.94
2022-10-01T02:25:58.765Z,80.83
2022-10-01T02:31:03.936Z,80.82
2022-10-01T02:36:11.652Z,80.89
2022-10-01T02:41:25.326Z,80.99
2022-10-01T02:46:55.067Z,81.30
2022-10-01T02:52:17.184Z,81.42
2022-10-01T02:57:24.296Z,81.49
2022-10-01T03:02:31.826Z,81.38
2022-10-01T03:07:35.944Z,81.17
2022-10-01T03:12:45.001Z,80.96
2022-10-01T03:17:53.863Z,80.93
2022-10-01T03:22:57.253Z,81.22
2022-10-01T03:28:01.190Z,81.59
2022-10-01T03:33:05.005Z,81.39
2022-10-01T03:38:08.626Z,81.61
2022-10-01T03:43:12.549Z,81.67
2022-10-01T03:48:16.166Z,81.55
2022-10-01T03:53:19.577Z,81.64
2022-10-01T03:58:23.710Z,81.52
2022-10-01T04:03:26.988Z,81.54
2022-10-01T04:08:30.337Z,82.08
2022-10-01T04:13:35.163Z,82.44
2022-10-01T04:18:39.002Z,82.75
2022-10-01T04:23:42.724Z,82.20
2022-10-01T04:28:47.126Z,81.94
2022-10-01T04:33:51.317Z,81.81
2022-10-01T04:39:01.841Z,81.96
2022-10-01T04:44:06.742Z,81.96
2022-10-01T04:49:10.443Z,82.00
2022-10-01T04:54:13.858Z,82.06
2022-10-01T04:59:18.710Z,82.21
2022-10-01T05:04:22.122Z,82.29
2022-10-01T05:09:25.636Z,82.13
2022-10-01T05:14:32.342Z,81.85
2022-10-01T05:19:36.218Z,81.93
2022-10-01T05:24:40.350Z,82.00
2022-10-01T05:29:44.416Z,81.83
2022-10-01T05:34:51.265Z,81.93
2022-10-01T05:39:57.075Z,82.25
2022-10-01T05:45:00.387Z,82.45
2022-10-01T05:50:05.372Z,82.56
2022-10-01T05:55:09.680Z,82.50
2022-10-01T06:00:14.109Z,82.71
2022-10-01T06:05:17.864Z,82.68
2022-10-01T06:10:22.529Z,82.82
2022-10-01T06:15:26.199Z,82.94
2022-10-01T06:20:30.014Z,82.66
2022-10-01T06:25:35.268Z,82.62
2022-10-01T06:30:40.465Z,82.47
2022-10-01T06:35:49.970Z,82.49
2022-10-01T06:41:00.000Z,82.54
2022-10-01T06:46:06.088Z,82.85
2022-10-01T06:51:09.500Z,82.93
2022-10-01T06:56:13.573Z,82.80
2022-10-01T07:01:21.199Z,82.40
2022-10-01T07:06:25.009Z,82.07
2022-10-01T07:11:28.424Z,81.83
2022-10-01T07:16:32.104Z,81.36
2022-10-01T07:21:35.763Z,81.32
2022-10-01T07:26:39.519Z,80.90
2022-10-01T07:31:44.632Z,80.79
2022-10-01T07:36:49.602Z,80.43
2022-10-01T07:41:53.310Z,80.06
2022-10-01T07:46:57.557Z,79.68
2022-10-01T07:52:01.947Z,79.17
2022-10-01T07:57:05.292Z,79.12
2022-10-01T08:02:17.991Z,78.28
2022-10-01T08:07:21.538Z,77.29
2022-10-01T08:12:26.364Z,76.96
2022-10-01T08:17:30.408Z,76.56
2022-10-01T08:22:36.540Z,76.21
2022-10-01T08:27:42.054Z,75.72
2022-10-01T08:32:45.370Z,75.17
2022-10-01T08:37:48.985Z,74.01
2022-10-01T08:42:55.070Z,72.91
2022-10-01T08:48:26.134Z,73.23
2022-10-01T08:53:57.907Z,72.67
2022-10-01T08:59:31.422Z,71.46
2022-10-01T09:04:34.765Z,70.88
2022-10-01T09:09:41.014Z,69.68
2022-10-01T09:14:54.262Z,69.14
2022-10-01T09:20:11.694Z,67.72
2022-10-01T09:25:26.482Z,67.82
2022-10-01T09:30:33.067Z,66.57
2022-10-01T09:35:44.530Z,66.25
2022-10-01T09:40:56.904Z,66.40
2022-10-01T09:46:02.686Z,64.92
2022-10-01T09:51:39.407Z,65.00
2022-10-01T09:56:53.533Z,65.29
2022-10-01T10:02:01.468Z,64.52
2022-10-01T10:07:06.404Z,63.85
2022-10-01T10:12:30.190Z,63.57
2022-10-01T10:17:38.107Z,61.75
2022-10-01T10:22:41.521Z,61.40
2022-10-01T10:27:55.750Z,60.71
2022-10-01T10:33:06.320Z,61.05
2022-10-01T10:38:19.109Z,60.64
2022-10-01T10:43:30.670Z,60.96
2022-10-01T10:48:45.090Z,60.60
2022-10-01T10:53:49.804Z,60.90
2022-10-01T10:58:54.342Z,59.64
2022-10-01T11:04:01.507Z,58.48
2022-10-01T11:09:11.325Z,58.73
2022-10-01T11:14:45.124Z,59.02
2022-10-01T11:20:34.245Z,58.97
2022-10-01T11:25:52.096Z,58.06
2022-10-01T11:31:47.834Z,57.97
2022-10-01T11:37:16.029Z,57.78
2022-10-01T11:42:35.200Z,57.81
2022-10-01T11:47:50.402Z,57.87
2022-10-01T11:53:32.729Z,58.06
2022-10-01T11:58:51.094Z,57.91
2022-10-01T12:03:54.715Z,57.12
2022-10-01T12:09:20.757Z,57.57
2022-10-01T12:14:37.718Z,57.42
2022-10-01T12:19:47.191Z,57.60
2022-10-01T12:24:51.435Z,57.90
2022-10-01T12:30:19.262Z,57.84
2022-10-01T12:35:37.734Z,57.78
2022-10-01T12:40:54.045Z,57.90
2022-10-01T12:46:29.450Z,57.85
2022-10-01T12:51:45.008Z,58.15
2022-10-01T12:57:17.915Z,58.15
2022-10-01T13:02:27.436Z,58.30
2022-10-01T13:07:47.049Z,58.26
2022-10-01T13:13:17.275Z,58.56
2022-10-01T13:18:51.746Z,58.58
2022-10-01T13:24:00.795Z,58.56
2022-10-01T13:29:31.241Z,58.65
2022-10-01T13:34:46.547Z,58.79
2022-10-01T13:39:50.772Z,58.40
2022-10-01T13:44:57.977Z,58.06
2022-10-01T13:50:06.809Z,58.27
2022-10-01T13:55:32.111Z,58.17
2022-10-01T14:00:35.655Z,58.08
2022-10-01T14:05:43.224Z,58.16
2022-10-01T14:11:17.095Z,58.51
2022-10-01T14:16:20.706Z,58.47
2022-10-01T14:21:39.382Z,58.94
2022-10-01T14:27:17.309Z,58.94
2022-10-01T14:33:08.848Z,59.44
2022-10-01T14:38:21.546Z,59.87
2022-10-01T14:43:28.788Z,60.28
2022-10-01T14:48:36.847Z,60.60
2022-10-01T14:53:43.910Z,60.95
2022-10-01T14:58:56.947Z,61.17
2022-10-01T15:04:00.405Z,61.58
2022-10-01T15:09:19.201Z,61.88
2022-10-01T15:14:26.011Z,62.10
2022-10-01T15:19:30.238Z,62.47
2022-10-01T15:24:47.350Z,62.96
2022-10-01T15:29:56.446Z,63.42
2022-10-01T15:35:02.551Z,63.58
2022-10-01T15:40:21.091Z,64.14
2022-10-01T15:45:26.255Z,64.40
2022-10-01T15:50:37.027Z,64.99
2022-10-01T15:55:47.984Z,65.50
2022-10-01T16:01:27.151Z,65.72
2022-10-01T16:06:48.205Z,65.94
2022-10-01T16:12:21.344Z,66.82
2022-10-01T16:17:58.977Z,67.36
2022-10-01T16:23:48.043Z,67.34
2022-10-01T16:29:00.024Z,67.58
2022-10-01T16:34:08.771Z,67.82
2022-10-01T16:39:15.864Z,68.16
2022-10-01T16:44:20.096Z,68.46
2022-10-01T16:49:25.254Z,68.79
2022-10-01T16:54:30.268Z,69.07
2022-10-01T16:59:34.230Z,69.27
2022-10-01T17:04:37.619Z,69.29
2022-10-01T17:09:41.370Z,69.72
2022-10-01T17:14:44.819Z,69.65
2022-10-01T17:19:48.192Z,69.77
2022-10-01T17:24:51.779Z,69.79
2022-10-01T17:29:57.482Z,70.07
2022-10-01T17:35:01.406Z,70.14
2022-10-01T17:40:07.536Z,70.50
2022-10-01T17:45:14.012Z,70.69
2022-10-01T17:50:18.951Z,70.99
2022-10-01T17:55:23.979Z,71.13
2022-10-01T18:00:27.487Z,71.41
2022-10-01T18:05:31.312Z,71.60
2022-10-01T18:10:34.733Z,71.85
2022-10-01T18:15:38.135Z,71.96
2022-10-01T18:20:41.960Z,72.11
2022-10-01T18:25:45.375Z,72.32
2022-10-01T18:30:54.931Z,72.61
2022-10-01T18:35:58.438Z,72.76
2022-10-01T18:41:12.610Z,73.15
2022-10-01T18:46:58.114Z,72.89
2022-10-01T18:52:20.759Z,73.13
2022-10-01T18:58:08.643Z,73.39
2022-10-01T19:03:33.664Z,73.40
2022-10-01T19:09:09.023Z,73.46
2022-10-01T19:14:45.710Z,73.69
2022-10-01T19:20:45.914Z,74.10
2022-10-01T19:26:22.142Z,74.27
2022-10-01T19:31:54.161Z,74.37
2022-10-01T19:37:10.132Z,74.28
2022-10-01T19:42:27.984Z,74.35
2022-10-01T19:47:51.063Z,74.50
2022-10-01T19:52:59.254Z,74.74
2022-10-01T19:58:19.631Z,74.93
2022-10-01T20:03:42.259Z,75.14
2022-10-01T20:09:08.644Z,75.55
2022-10-01T20:15:20.241Z,75.51
2022-10-01T20:20:38.690Z,75.69
2022-10-01T20:26:18.236Z,76.55
2022-10-01T20:31:41.796Z,76.88
2022-10-01T20:36:57.135Z,77.26
2022-10-01T20:42:01.575Z,77.60
2022-10-01T20:47:42.475Z,77.86
2022-10-01T20:53:16.186Z,78.08
2022-10-01T20:58:29.205Z,78.53
2022-10-01T21:03:43.134Z,78.96
2022-10-01T21:08:56.944Z,79.44
2022-10-01T21:14:15.437Z,79.01
2022-10-01T21:19:30.607Z,78.94
2022-10-01T21:24:39.441Z,78.89
2022-10-01T21:29:57.089Z,78.73
2022-10-01T21:35:21.698Z,78.85
2022-10-01T21:40:55.219Z,79.03
2022-10-01T21:46:32.921Z,79.25
2022-10-01T21:52:04.411Z,79.28
2022-10-01T21:57:25.558Z,79.46
2022-10-01T22:02:49.133Z,79.50
2022-10-01T22:07:59.710Z,79.68
2022-10-01T22:13:14.383Z,79.79
2022-10-01T22:18:53.790Z,79.96
2022-10-01T22:24:08.932Z,80.13
2022-10-01T22:29:22.687Z,80.33
2022-10-01T22:34:38.082Z,80.47
2022-10-01T22:39:55.957Z,80.60
2022-10-01T22:45:13.630Z,80.74
2022-10-01T22:50:28.773Z,80.72
2022-10-01T22:55:54.577Z,80.86
2022-10-01T23:01:22.989Z,80.99
2022-10-01T23:07:10.355Z,81.07
2022-10-01T23:12:19.400Z,81.40
2022-10-01T23:17:45.751Z,81.51
2022-10-01T23:23:25.521Z,81.54
2022-10-01T23:28:37.129Z,81.60
2022-10-01T23:34:27.746Z,81.61
2022-10-01T23:39:54.985Z,81.79
2022-10-01T23:45:24.182Z,81.76
2022-10-01T23:50:40.375Z,81.99
2022-10-01T23:56:20.217Z,82.21
